ARP149 LIRA-LIMF
Flight info
| Callsign | ARP149 |
|---|---|
| Flight time | N/A |
| Altitude | 38000 |
| Route | GILIO DCT ELB DCT EVROG DCT UNITA DCT LAGEN |
| Aircraft | C700/M-SBDGHM1RWXY/LB2 |
Departure
| Time | 2026-04-30 14:25 |
|---|---|
| Airport | Ciampino–G. B. Pastine International Airport (LIRA) |
Arrival
| Time | N/A |
|---|---|
| Airport | Turin Airport (LIMF) |
| Time | Latitude | Longitude | Altitude | Speed | Heading |
|---|---|---|---|---|---|
| 2026-04-30 14:07 | 41.79681 | 12.59350 | 387 ft | 0 kts | 53° |
| 2026-04-30 14:19 | 41.79679 | 12.59345 | 387 ft | 3 kts | 53° |
| 2026-04-30 14:19 | 41.79663 | 12.59329 | 387 ft | 3 kts | 345° |
| 2026-04-30 14:19 | 41.79659 | 12.59331 | 387 ft | 0 kts | 320° |
| 2026-04-30 14:21 | 41.79684 | 12.59306 | 387 ft | 9 kts | 328° |
| 2026-04-30 14:21 | 41.79755 | 12.59301 | 387 ft | 13 kts | 9° |
| 2026-04-30 14:21 | 41.79946 | 12.59272 | 387 ft | 18 kts | 332° |
| 2026-04-30 14:22 | 41.80068 | 12.59188 | 387 ft | 21 kts | 330° |
| 2026-04-30 14:22 | 41.80375 | 12.58981 | 387 ft | 28 kts | 336° |
| 2026-04-30 14:22 | 41.80550 | 12.58854 | 387 ft | 29 kts | 332° |
| 2026-04-30 14:23 | 41.80719 | 12.58765 | 387 ft | 12 kts | 22° |
| 2026-04-30 14:23 | 41.80735 | 12.58784 | 387 ft | 0 kts | 52° |
| 2026-04-30 14:24 | 41.80729 | 12.58937 | 388 ft | 1 kts | 152° |
| 2026-04-30 14:24 | 41.80587 | 12.59036 | 386 ft | 74 kts | 153° |
| 2026-04-30 14:25 | 41.78726 | 12.60290 | 905 ft | 184 kts | 162° |
| 2026-04-30 14:25 | 41.76048 | 12.60276 | 2179 ft | 201 kts | 201° |
| 2026-04-30 14:26 | 41.73984 | 12.57647 | 4173 ft | 225 kts | 246° |
| 2026-04-30 14:26 | 41.73653 | 12.55501 | 5752 ft | 240 kts | 273° |
| 2026-04-30 14:26 | 41.74488 | 12.51041 | 9156 ft | 254 kts | 288° |
| 2026-04-30 14:27 | 41.75006 | 12.48657 | 10506 ft | 278 kts | 288° |
| 2026-04-30 14:27 | 41.75569 | 12.46056 | 11831 ft | 298 kts | 288° |
| 2026-04-30 14:27 | 41.76139 | 12.43367 | 13760 ft | 300 kts | 288° |
| 2026-04-30 14:28 | 41.77313 | 12.37903 | 16949 ft | 312 kts | 288° |
| 2026-04-30 14:28 | 41.77938 | 12.35050 | 18504 ft | 318 kts | 288° |
| 2026-04-30 14:28 | 41.78567 | 12.32152 | 19796 ft | 323 kts | 288° |
| 2026-04-30 14:28 | 41.79190 | 12.29267 | 21021 ft | 327 kts | 288° |
| 2026-04-30 14:29 | 41.80445 | 12.23365 | 23400 ft | 335 kts | 285° |
| 2026-04-30 14:29 | 41.81246 | 12.17977 | 24000 ft | 376 kts | 283° |
| 2026-04-30 14:30 | 41.83102 | 12.05754 | 24150 ft | 409 kts | 283° |
| 2026-04-30 14:31 | 41.84228 | 11.98275 | 24132 ft | 407 kts | 283° |
| 2026-04-30 14:31 | 41.85343 | 11.90824 | 24104 ft | 408 kts | 283° |
| 2026-04-30 14:31 | 41.85891 | 11.87135 | 24074 ft | 410 kts | 283° |
| 2026-04-30 14:32 | 41.87004 | 11.79640 | 24044 ft | 407 kts | 283° |
| 2026-04-30 14:32 | 41.87554 | 11.75925 | 24031 ft | 407 kts | 283° |
| 2026-04-30 14:32 | 41.88108 | 11.72180 | 24016 ft | 409 kts | 283° |
| 2026-04-30 14:33 | 41.88659 | 11.68429 | 24003 ft | 410 kts | 283° |
| 2026-04-30 14:33 | 41.90356 | 11.61171 | 23986 ft | 406 kts | 295° |
| 2026-04-30 14:33 | 41.91689 | 11.57833 | 23986 ft | 405 kts | 301° |
| 2026-04-30 14:34 | 41.93316 | 11.54736 | 23979 ft | 406 kts | 308° |
| 2026-04-30 14:34 | 41.95205 | 11.51919 | 23985 ft | 408 kts | 313° |
| 2026-04-30 14:34 | 41.97155 | 11.49183 | 23983 ft | 409 kts | 312° |
| 2026-04-30 14:34 | 41.99110 | 11.46383 | 23989 ft | 410 kts | 311° |
| 2026-04-30 14:35 | 42.02363 | 11.41767 | 23994 ft | 407 kts | 312° |
| 2026-04-30 14:35 | 42.04968 | 11.38068 | 23996 ft | 408 kts | 312° |
| 2026-04-30 14:35 | 42.06918 | 11.35288 | 23995 ft | 409 kts | 312° |
| 2026-04-30 14:36 | 42.08853 | 11.32532 | 24853 ft | 393 kts | 312° |
| 2026-04-30 14:36 | 42.10669 | 11.29948 | 26911 ft | 364 kts | 311° |
| 2026-04-30 14:36 | 42.12345 | 11.27560 | 28612 ft | 353 kts | 310° |
| 2026-04-30 14:36 | 42.14068 | 11.25086 | 29419 ft | 361 kts | 310° |
| 2026-04-30 14:37 | 42.15804 | 11.22602 | 30307 ft | 365 kts | 310° |
| 2026-04-30 14:37 | 42.17536 | 11.20129 | 31050 ft | 369 kts | 310° |
| 2026-04-30 14:37 | 42.19300 | 11.17603 | 31776 ft | 372 kts | 310° |
| 2026-04-30 14:37 | 42.21083 | 11.15047 | 32459 ft | 376 kts | 310° |
| 2026-04-30 14:38 | 42.22883 | 11.12462 | 33110 ft | 380 kts | 310° |
| 2026-04-30 14:38 | 42.24697 | 11.09861 | 33886 ft | 379 kts | 310° |
| 2026-04-30 14:38 | 42.26494 | 11.07279 | 34663 ft | 376 kts | 310° |
| 2026-04-30 14:38 | 42.28297 | 11.04685 | 35240 ft | 378 kts | 310° |
| 2026-04-30 14:39 | 42.30102 | 11.02082 | 35797 ft | 380 kts | 310° |
| 2026-04-30 14:39 | 42.31893 | 10.99505 | 36342 ft | 381 kts | 310° |
| 2026-04-30 14:39 | 42.33709 | 10.96886 | 36866 ft | 382 kts | 310° |
| 2026-04-30 14:40 | 42.37360 | 10.91612 | 37859 ft | 384 kts | 310° |
| 2026-04-30 14:40 | 42.39202 | 10.88949 | 38002 ft | 394 kts | 311° |
| 2026-04-30 14:40 | 42.41103 | 10.86198 | 38001 ft | 405 kts | 311° |
| 2026-04-30 14:40 | 42.43051 | 10.83381 | 38011 ft | 415 kts | 311° |
| 2026-04-30 14:41 | 42.47088 | 10.77528 | 38021 ft | 433 kts | 311° |
| 2026-04-30 14:41 | 42.51219 | 10.71529 | 38029 ft | 433 kts | 311° |
| 2026-04-30 14:42 | 42.55311 | 10.65571 | 38027 ft | 431 kts | 311° |
| 2026-04-30 14:42 | 42.59182 | 10.59923 | 38032 ft | 435 kts | 311° |
| 2026-04-30 14:43 | 42.63318 | 10.53879 | 38032 ft | 436 kts | 311° |
| 2026-04-30 14:43 | 42.67410 | 10.47885 | 38044 ft | 433 kts | 311° |
| 2026-04-30 14:44 | 42.71501 | 10.41881 | 38134 ft | 432 kts | 311° |
| 2026-04-30 14:44 | 42.76016 | 10.36342 | 38130 ft | 440 kts | 319° |
| 2026-04-30 14:45 | 42.80752 | 10.31108 | 38136 ft | 436 kts | 319° |
| 2026-04-30 14:45 | 42.85471 | 10.25899 | 38136 ft | 436 kts | 319° |
| 2026-04-30 14:46 | 42.90204 | 10.20658 | 38140 ft | 440 kts | 319° |
| 2026-04-30 14:46 | 42.94166 | 10.16262 | 38148 ft | 441 kts | 319° |
| 2026-04-30 14:47 | 42.99718 | 10.10093 | 38152 ft | 438 kts | 319° |
| 2026-04-30 14:47 | 43.04408 | 10.04869 | 38153 ft | 437 kts | 319° |
| 2026-04-30 14:48 | 43.09153 | 9.99574 | 38159 ft | 442 kts | 319° |
| 2026-04-30 14:48 | 43.11520 | 9.96930 | 38161 ft | 427 kts | 319° |
| 2026-04-30 14:48 | 43.13752 | 9.94441 | 37844 ft | 405 kts | 319° |
| 2026-04-30 14:49 | 43.15925 | 9.92002 | 36689 ft | 403 kts | 318° |
| 2026-04-30 14:49 | 43.18097 | 9.89558 | 35493 ft | 403 kts | 318° |
| 2026-04-30 14:49 | 43.20267 | 9.87128 | 34328 ft | 402 kts | 318° |
| 2026-04-30 14:49 | 43.22428 | 9.84702 | 32916 ft | 401 kts | 317° |
| 2026-04-30 14:50 | 43.26066 | 9.80607 | 30166 ft | 406 kts | 317° |
| 2026-04-30 14:50 | 43.28261 | 9.78134 | 28118 ft | 410 kts | 318° |
| 2026-04-30 14:51 | 43.32770 | 9.73054 | 23677 ft | 423 kts | 320° |
| 2026-04-30 14:51 | 43.35030 | 9.70501 | 20889 ft | 430 kts | 320° |
| 2026-04-30 14:51 | 43.39365 | 9.65603 | 15924 ft | 363 kts | 321° |
| 2026-04-30 14:52 | 43.41270 | 9.63446 | 15180 ft | 348 kts | 321° |
| 2026-04-30 14:52 | 43.44843 | 9.59398 | 15160 ft | 319 kts | 321° |
| 2026-04-30 14:52 | 43.46532 | 9.57478 | 15166 ft | 311 kts | 321° |
| 2026-04-30 14:53 | 43.49828 | 9.53734 | 15170 ft | 302 kts | 321° |
| 2026-04-30 14:53 | 43.51446 | 9.51896 | 15168 ft | 311 kts | 321° |
| 2026-04-30 14:54 | 43.55117 | 9.47717 | 15188 ft | 372 kts | 321° |
| 2026-04-30 14:54 | 43.59156 | 9.43106 | 15194 ft | 380 kts | 321° |
| 2026-04-30 14:55 | 43.63222 | 9.38461 | 15193 ft | 378 kts | 321° |
| 2026-04-30 14:55 | 43.65258 | 9.36133 | 15195 ft | 380 kts | 321° |
| 2026-04-30 14:55 | 43.69330 | 9.31465 | 15194 ft | 378 kts | 321° |
| 2026-04-30 14:56 | 43.73390 | 9.26807 | 15197 ft | 381 kts | 321° |
| 2026-04-30 14:56 | 43.77423 | 9.22171 | 15192 ft | 378 kts | 321° |
| 2026-04-30 14:57 | 43.79477 | 9.19802 | 15195 ft | 381 kts | 321° |
| 2026-04-30 14:57 | 43.83548 | 9.15109 | 15190 ft | 379 kts | 321° |
| 2026-04-30 14:58 | 43.87597 | 9.10434 | 15194 ft | 382 kts | 321° |
| 2026-04-30 14:58 | 43.89634 | 9.08074 | 15195 ft | 380 kts | 321° |
| 2026-04-30 14:58 | 43.93693 | 9.03374 | 15194 ft | 382 kts | 321° |
| 2026-04-30 14:59 | 43.97762 | 8.98653 | 15193 ft | 379 kts | 321° |
| 2026-04-30 15:00 | 44.03817 | 8.91610 | 15189 ft | 378 kts | 321° |
| 2026-04-30 15:00 | 44.07864 | 8.86894 | 15190 ft | 380 kts | 321° |
| 2026-04-30 15:01 | 44.11905 | 8.82174 | 15191 ft | 377 kts | 321° |
| 2026-04-30 15:01 | 44.13924 | 8.79812 | 15187 ft | 379 kts | 321° |
| 2026-04-30 15:01 | 44.17963 | 8.75083 | 15187 ft | 378 kts | 321° |
| 2026-04-30 15:02 | 44.19977 | 8.72718 | 15186 ft | 378 kts | 321° |
| 2026-04-30 15:02 | 44.21995 | 8.70351 | 15186 ft | 378 kts | 321° |
| 2026-04-30 15:03 | 44.28031 | 8.63254 | 15192 ft | 377 kts | 321° |
| 2026-04-30 15:03 | 44.32031 | 8.58537 | 15194 ft | 379 kts | 321° |
| 2026-04-30 15:04 | 44.36058 | 8.53781 | 15197 ft | 380 kts | 321° |
| 2026-04-30 15:04 | 44.41507 | 8.46430 | 15207 ft | 351 kts | 312° |
| 2026-04-30 15:05 | 44.46332 | 8.38862 | 13283 ft | 344 kts | 314° |
| 2026-04-30 15:06 | 44.49564 | 8.34341 | 12207 ft | 305 kts | 315° |
| 2026-04-30 15:06 | 44.52235 | 8.30383 | 12043 ft | 259 kts | 315° |
| 2026-04-30 15:07 | 44.54720 | 8.26775 | 11005 ft | 257 kts | 315° |
| 2026-04-30 15:07 | 44.57184 | 8.23173 | 10062 ft | 254 kts | 316° |
| 2026-04-30 15:08 | 44.59643 | 8.19566 | 9051 ft | 252 kts | 316° |
| 2026-04-30 15:08 | 44.63275 | 8.14251 | 7592 ft | 250 kts | 316° |
| 2026-04-30 15:09 | 44.65641 | 8.10770 | 7009 ft | 240 kts | 316° |
| 2026-04-30 15:09 | 44.68010 | 8.07299 | 7002 ft | 252 kts | 316° |
| 2026-04-30 15:10 | 44.70430 | 8.03728 | 7006 ft | 252 kts | 315° |
| 2026-04-30 15:11 | 44.75277 | 7.96586 | 7008 ft | 251 kts | 315° |
| 2026-04-30 15:11 | 44.77646 | 7.93077 | 6754 ft | 237 kts | 315° |
| 2026-04-30 15:12 | 44.80845 | 7.88350 | 6245 ft | 218 kts | 315° |
| 2026-04-30 15:13 | 44.82929 | 7.85262 | 5699 ft | 217 kts | 315° |
| 2026-04-30 15:14 | 44.87049 | 7.79140 | 4693 ft | 213 kts | 315° |
| 2026-04-30 15:14 | 44.90077 | 7.74641 | 4130 ft | 202 kts | 314° |
| 2026-04-30 15:16 | 44.94517 | 7.68031 | 3993 ft | 189 kts | 314° |
| 2026-04-30 15:17 | 44.98581 | 7.63633 | 3994 ft | 186 kts | 354° |
| 2026-04-30 15:18 | 45.04671 | 7.63886 | 4012 ft | 185 kts | 0° |
| 2026-04-30 15:19 | 45.08471 | 7.64087 | 3522 ft | 168 kts | 3° |